Time;durP1;ratioP1;P1;durP2;ratioP2;P2;SDS_P1;SDS_P2;PMS_P1;PMS_P2;Temp;Humidity;BMP_temperature;BMP_pressure;BME280_temperature;BME280_humidity;BME280_pressure;Samples;Min_cycle;Max_cycle;Signal;HPM_P1;HPM_P2
2022/05/16 00:03:45;;;;;;;6.85;4.80;;;;;13.30;96489.00;;;;8308251;28;20243;-70
2022/05/16 00:07:48;;;;;;;7.60;4.95;;;;;13.30;96489.00;;;;8306282;28;20238;-69
2022/05/16 00:11:51;;;;;;;6.63;5.10;;;;;13.10;96475.00;;;;8281112;28;20660;-71
2022/05/16 00:15:56;;;;;;;8.98;5.57;;;;;12.90;96484.00;;;;8308064;28;20230;-73
2022/05/16 00:19:59;;;;;;;8.25;4.95;;;;;12.80;96474.00;;;;8301141;28;20711;-70
2022/05/16 00:24:03;;;;;;;8.35;5.03;;;;;12.70;96466.00;;;;8305311;28;20337;-71
2022/05/16 00:28:06;;;;;;;11.88;5.65;;;;;12.70;96468.00;;;;8298915;28;20217;-73
2022/05/16 00:32:13;;;;;;;8.60;4.97;;;;;12.60;96468.00;;;;8306544;28;20230;-72
2022/05/16 00:36:16;;;;;;;6.93;4.53;;;;;12.60;96471.00;;;;8296536;28;20234;-72
2022/05/16 00:40:20;;;;;;;8.48;5.15;;;;;12.50;96460.00;;;;8313482;28;20580;-73
2022/05/16 00:44:24;;;;;;;8.48;4.97;;;;;12.50;96459.00;;;;8305684;28;20744;-70
2022/05/16 00:48:29;;;;;;;8.82;5.03;;;;;12.40;96454.00;;;;8315189;28;20702;-70
2022/05/16 00:52:35;;;;;;;10.68;5.97;;;;;12.40;96452.00;;;;8309769;28;20316;-70
2022/05/16 00:56:39;;;;;;;13.87;4.97;;;;;12.30;96460.00;;;;8313382;28;20225;-72
2022/05/16 01:00:45;;;;;;;8.52;5.32;;;;;12.30;96455.00;;;;8304904;28;20229;-71
2022/05/16 01:04:48;;;;;;;6.82;5.78;;;;;12.30;96437.00;;;;8310060;28;20235;-71
2022/05/16 01:08:51;;;;;;;9.90;5.30;;;;;12.20;96437.00;;;;8310171;28;20237;-71
2022/05/16 01:12:55;;;;;;;11.10;5.72;;;;;12.20;96442.00;;;;8308609;28;20235;-70
2022/05/16 01:16:59;;;;;;;8.18;5.35;;;;;12.20;96448.00;;;;8309621;28;20309;-71
2022/05/16 01:21:15;;;;;;;6.10;5.37;;;;;12.10;96452.00;;;;8279903;28;20238;-71
2022/05/16 01:25:23;;;;;;;7.43;5.15;;;;;12.00;96451.00;;;;8302743;28;20304;-71
2022/05/16 01:29:26;;;;;;;9.40;5.70;;;;;12.00;96453.00;;;;8295187;28;20229;-71
2022/05/16 01:33:29;;;;;;;6.80;5.45;;;;;11.90;96443.00;;;;8299397;28;20229;-70
2022/05/16 01:41:50;;;;;;;8.90;5.32;;;;;11.80;96449.00;;;;8308051;28;20304;-71
2022/05/16 01:45:54;;;;;;;9.10;5.50;;;;;11.70;96448.00;;;;8307338;28;20245;-72
2022/05/16 01:49:57;;;;;;;7.00;5.90;;;;;11.70;96438.00;;;;8309957;28;20302;-70
2022/05/16 01:54:02;;;;;;;11.30;5.87;;;;;11.60;96435.00;;;;8315303;28;20331;-71
2022/05/16 01:58:07;;;;;;;8.23;5.87;;;;;11.50;96430.00;;;;8290892;28;20223;-69
2022/05/16 02:02:10;;;;;;;13.13;6.57;;;;;11.50;96429.00;;;;8274822;28;20264;-73
2022/05/16 02:06:14;;;;;;;7.50;5.93;;;;;11.40;96430.00;;;;8307015;28;20228;-71
2022/05/16 02:10:19;;;;;;;11.17;6.00;;;;;11.40;96434.00;;;;8309173;28;20303;-70
2022/05/16 02:14:25;;;;;;;6.23;5.53;;;;;11.40;96420.00;;;;8297903;28;20232;-73
2022/05/16 02:18:29;;;;;;;11.20;5.85;;;;;11.30;96423.00;;;;8306357;28;20600;-70
2022/05/16 02:26:53;;;;;;;7.87;6.30;;;;;11.10;96423.00;;;;8294096;28;20226;-70
2022/05/16 02:30:58;;;;;;;11.13;6.27;;;;;11.10;96415.00;;;;8284077;28;20247;-71
2022/05/16 02:35:01;;;;;;;8.20;6.13;;;;;11.10;96417.00;;;;8312816;28;20312;-71
2022/05/16 02:39:05;;;;;;;8.77;5.87;;;;;11.10;96409.00;;;;8308324;28;20297;-72
2022/05/16 02:43:09;;;;;;;14.00;6.40;;;;;11.00;96403.00;;;;8314745;28;20701;-71
2022/05/16 02:47:16;;;;;;;8.43;6.17;;;;;11.00;96400.00;;;;8312249;28;20222;-70
2022/05/16 02:51:19;;;;;;;8.65;5.88;;;;;11.00;96416.00;;;;8286400;28;20308;-71
2022/05/16 02:55:22;;;;;;;8.33;6.37;;;;;11.00;96413.00;;;;8306481;28;20228;-71
2022/05/16 02:59:27;;;;;;;7.47;5.90;;;;;11.00;96430.00;;;;8313300;28;20243;-71
2022/05/16 03:03:31;;;;;;;9.93;6.18;;;;;10.90;96430.00;;;;8399349;22;20230;-69
2022/05/16 03:07:35;;;;;;;7.93;6.33;;;;;10.80;96422.00;;;;8408069;28;20235;-72
2022/05/16 03:11:38;;;;;;;10.70;6.47;;;;;10.70;96412.00;;;;8413704;28;20242;-71
2022/05/16 03:15:41;;;;;;;9.60;6.70;;;;;10.60;96403.00;;;;8412578;28;20227;-72
2022/05/16 03:19:46;;;;;;;9.73;6.87;;;;;10.60;96396.00;;;;8398353;28;20315;-70
2022/05/16 03:23:49;;;;;;;16.77;7.67;;;;;10.60;96400.00;;;;8409818;28;20237;-71
2022/05/16 03:27:53;;;;;;;11.00;7.17;;;;;10.70;96415.00;;;;8415220;28;20221;-72
2022/05/16 03:31:57;;;;;;;11.33;6.50;;;;;10.70;96415.00;;;;8412035;28;20679;-71
2022/05/16 03:36:01;;;;;;;10.60;6.43;;;;;10.80;96417.00;;;;8411259;28;20266;-71
2022/05/16 03:44:26;;;;;;;11.20;7.07;;;;;10.70;96415.00;;;;8433469;28;20238;-71
2022/05/16 03:48:29;;;;;;;13.13;6.57;;;;;10.80;96432.00;;;;8431918;28;20257;-72
2022/05/16 03:52:34;;;;;;;9.43;6.23;;;;;10.80;96430.00;;;;8423513;28;20237;-71
2022/05/16 03:56:38;;;;;;;11.03;7.13;;;;;10.80;96434.00;;;;8428723;28;20319;-68
2022/05/16 04:00:41;;;;;;;12.53;6.60;;;;;10.80;96436.00;;;;8441203;28;20230;-71
2022/05/16 04:04:45;;;;;;;11.47;6.53;;;;;10.90;96436.00;;;;8452784;27;20226;-72
2022/05/16 04:08:49;;;;;;;13.07;6.87;;;;;10.90;96449.00;;;;8470869;27;20218;-69
2022/05/16 04:12:54;;;;;;;11.63;6.90;;;;;11.00;96438.00;;;;8461222;27;20229;-72
2022/05/16 04:16:58;;;;;;;9.53;6.87;;;;;11.10;96443.00;;;;8454666;27;20225;-74
2022/05/16 04:21:02;;;;;;;9.87;6.73;;;;;11.10;96437.00;;;;8451227;27;20217;-75
2022/05/16 04:25:08;;;;;;;11.67;7.17;;;;;11.30;96447.00;;;;8446444;27;20221;-74
2022/05/16 04:29:12;;;;;;;15.20;7.37;;;;;11.50;96454.00;;;;8431294;27;20230;-75
2022/05/16 04:33:15;;;;;;;8.80;6.67;;;;;11.70;96454.00;;;;8442329;27;20225;-74
2022/05/16 04:37:18;;;;;;;13.32;7.13;;;;;11.90;96460.00;;;;8438148;27;20226;-74
2022/05/16 04:45:44;;;;;;;9.93;6.50;;;;;12.20;96458.00;;;;8447559;27;20677;-74
2022/05/16 04:49:47;;;;;;;10.20;6.60;;;;;12.30;96478.00;;;;8446382;27;20795;-72
2022/05/16 04:53:51;;;;;;;12.35;6.60;;;;;12.50;96474.00;;;;8461106;27;20254;-73
2022/05/16 04:57:57;;;;;;;11.57;6.80;;;;;12.60;96464.00;;;;8459402;27;20735;-73
2022/05/16 05:02:00;;;;;;;14.68;6.30;;;;;12.80;96461.00;;;;8464722;27;20232;-74
2022/05/16 05:06:03;;;;;;;8.45;7.07;;;;;13.00;96467.00;;;;8464722;27;20221;-74
2022/05/16 05:14:34;;;;;;;10.55;7.00;;;;;14.00;96465.00;;;;8454389;28;20638;-73
2022/05/16 05:18:39;;;;;;;7.25;6.32;;;;;14.90;96469.00;;;;8455746;28;20257;-73
2022/05/16 05:22:43;;;;;;;9.13;5.95;;;;;15.80;96473.00;;;;8460334;28;20228;-74
2022/05/16 05:26:47;;;;;;;16.20;7.32;;;;;16.70;96465.00;;;;8462713;28;20627;-72
2022/05/16 05:30:52;;;;;;;7.43;5.57;;;;;17.60;96461.00;;;;8458179;28;20313;-73
2022/05/16 05:34:55;;;;;;;8.70;5.80;;;;;18.40;96460.00;;;;8465463;28;20300;-73
2022/05/16 05:38:59;;;;;;;6.50;4.80;;;;;19.00;96464.00;;;;8462344;28;20923;-73
2022/05/16 05:43:04;;;;;;;10.90;5.55;;;;;19.00;96464.00;;;;8455954;28;20296;-74
2022/05/16 05:47:09;;;;;;;11.57;5.93;;;;;18.90;96464.00;;;;8463535;28;20230;-73
2022/05/16 05:51:13;;;;;;;14.15;5.90;;;;;18.90;96459.00;;;;8458368;28;20252;-74
2022/05/16 05:55:16;;;;;;;7.53;5.30;;;;;19.10;96463.00;;;;8452772;28;20581;-74
2022/05/16 05:59:20;;;;;;;5.70;4.97;;;;;19.20;96471.00;;;;8469834;28;20278;-72
2022/05/16 06:03:25;;;;;;;10.02;5.53;;;;;19.40;96475.00;;;;8466218;28;20221;-72
2022/05/16 06:07:28;;;;;;;11.32;5.82;;;;;19.70;96479.00;;;;8463233;28;20225;-72
2022/05/16 06:11:31;;;;;;;9.65;5.15;;;;;20.00;96479.00;;;;8462274;28;20225;-72
2022/05/16 06:15:35;;;;;;;8.07;5.00;;;;;20.20;96475.00;;;;8472948;27;20218;-72
2022/05/16 06:19:40;;;;;;;8.60;5.80;;;;;20.50;96471.00;;;;8467938;27;20246;-73
2022/05/16 06:23:43;;;;;;;6.80;5.43;;;;;20.90;96472.00;;;;8475836;27;20642;-75
2022/05/16 06:27:46;;;;;;;7.00;4.20;;;;;21.40;96470.00;;;;8471739;27;20233;-73
2022/05/16 06:31:49;;;;;;;7.20;3.70;;;;;22.10;96472.00;;;;8468678;27;20218;-73
2022/05/16 06:35:54;;;;;;;6.60;3.65;;;;;23.00;96489.00;;;;8460092;27;20230;-72
2022/05/16 06:39:57;;;;;;;7.45;3.80;;;;;23.90;96484.00;;;;8472989;27;20233;-74
2022/05/16 06:44:01;;;;;;;5.72;3.53;;;;;24.60;96484.00;;;;8465824;27;20244;-76
2022/05/16 06:48:05;;;;;;;7.50;3.90;;;;;25.30;96483.00;;;;8462642;27;20721;-71
2022/05/16 06:52:09;;;;;;;5.05;3.65;;;;;25.60;96489.00;;;;8458531;27;20233;-70
2022/05/16 06:56:13;;;;;;;8.43;4.20;;;;;26.00;96497.00;;;;8472078;27;20233;-69
2022/05/16 07:00:18;;;;;;;5.68;3.55;;;;;26.00;96502.00;;;;8466189;27;20387;-70
2022/05/16 07:04:21;;;;;;;5.72;3.60;;;;;25.90;96508.00;;;;8462623;27;20226;-70
2022/05/16 07:08:26;;;;;;;5.72;3.30;;;;;26.00;96513.00;;;;8428707;27;20292;-72
2022/05/16 07:12:30;;;;;;;5.53;3.63;;;;;26.30;96523.00;;;;8442513;27;20217;-69
2022/05/16 07:16:33;;;;;;;6.97;3.92;;;;;26.50;96530.00;;;;8457832;27;20634;-70
2022/05/16 07:20:38;;;;;;;7.07;4.43;;;;;26.40;96522.00;;;;8463082;27;20738;-71
2022/05/16 07:24:43;;;;;;;8.80;3.78;;;;;26.30;96524.00;;;;8451388;27;20232;-68
2022/05/16 07:28:47;;;;;;;8.80;3.78;;;;;26.40;96526.00;;;;8460675;27;21224;-69
2022/05/16 07:32:50;;;;;;;7.05;3.80;;;;;26.50;96531.00;;;;8464589;27;20228;-69
2022/05/16 07:36:53;;;;;;;7.43;3.40;;;;;27.00;96538.00;;;;8469911;27;20214;-69
2022/05/16 07:41:03;;;;;;;10.38;4.00;;;;;27.20;96541.00;;;;8462885;27;20691;-71
2022/05/16 07:45:08;;;;;;;6.82;3.47;;;;;27.20;96553.00;;;;8458239;27;20687;-73
2022/05/16 07:49:13;;;;;;;8.27;3.65;;;;;27.20;96562.00;;;;8474220;27;20304;-69
2022/05/16 07:53:17;;;;;;;7.35;3.38;;;;;27.10;96543.00;;;;8465570;27;20222;-71
2022/05/16 07:57:22;;;;;;;7.90;3.67;;;;;27.20;96550.00;;;;8470802;27;20697;-72
2022/05/16 08:01:26;;;;;;;5.72;3.42;;;;;27.00;96549.00;;;;8471565;27;20244;-71
2022/05/16 08:05:29;;;;;;;8.45;3.72;;;;;27.00;96552.00;;;;8474570;27;20307;-71
2022/05/16 08:13:54;;;;;;;5.80;3.33;;;;;27.80;96559.00;;;;8457951;27;20252;-74
2022/05/16 08:17:58;;;;;;;5.78;3.33;;;;;27.80;96560.00;;;;8459154;27;20651;-74
2022/05/16 08:22:01;;;;;;;5.47;3.42;;;;;28.00;96558.00;;;;8458441;27;20742;-72
2022/05/16 08:26:04;;;;;;;5.32;3.50;;;;;28.10;96568.00;;;;8454216;27;20238;-74
2022/05/16 08:30:10;;;;;;;5.47;3.65;;;;;28.40;96566.00;;;;8461392;27;20224;-74
2022/05/16 08:34:15;;;;;;;7.65;3.60;;;;;28.30;96585.00;;;;8455622;27;20760;-73
2022/05/16 08:42:50;;;;;;;6.97;3.33;;;;;29.10;96597.00;;;;8450978;27;20217;-74
2022/05/16 08:47:10;;;;;;;12.65;4.00;;;;;30.20;96590.00;;;;8454859;27;20214;-73
2022/05/16 08:51:18;;;;;;;6.10;3.22;;;;;30.90;96592.00;;;;8454765;27;20231;-74
2022/05/16 08:55:29;;;;;;;4.30;3.20;;;;;31.50;96584.00;;;;8464376;27;20472;-74
2022/05/16 08:59:36;;;;;;;4.15;3.00;;;;;32.00;96604.00;;;;8454462;27;20746;-75
2022/05/16 09:03:45;;;;;;;5.13;3.28;;;;;32.50;96599.00;;;;8467320;27;20229;-75
2022/05/16 09:07:51;;;;;;;4.43;3.25;;;;;33.20;96608.00;;;;8456862;28;20710;-74
2022/05/16 09:12:00;;;;;;;4.78;3.70;;;;;33.90;96611.00;;;;8457413;28;20226;-74
2022/05/16 09:16:11;;;;;;;4.40;3.40;;;;;34.10;96601.00;;;;8462177;28;21251;-73
2022/05/16 09:20:28;;;;;;;6.22;3.40;;;;;34.50;96610.00;;;;8463518;28;20312;-72
2022/05/16 09:24:36;;;;;;;12.07;3.22;;;;;34.10;96611.00;;;;8455510;28;20241;-72
2022/05/16 09:28:46;;;;;;;5.05;3.38;;;;;33.90;96607.00;;;;8453901;28;20873;-73
2022/05/16 09:32:53;;;;;;;5.38;3.20;;;;;34.80;96606.00;;;;8459525;28;20250;-72
2022/05/16 09:36:58;;;;;;;7.68;3.13;;;;;35.70;96606.00;;;;8462555;28;20218;-73
2022/05/16 09:41:17;;;;;;;7.28;3.28;;;;;35.20;96603.00;;;;8453785;28;20336;-76
2022/05/16 09:45:28;;;;;;;6.43;3.30;;;;;34.80;96599.00;;;;8463835;28;20516;-73
2022/05/16 09:49:31;;;;;;;3.55;2.70;;;;;33.90;96602.00;;;;8455544;28;20224;-75
2022/05/16 09:53:42;;;;;;;3.95;2.80;;;;;32.50;96604.00;;;;8458233;27;20333;-76
2022/05/16 09:58:16;;;;;;;8.43;3.20;;;;;31.70;96605.00;;;;8472238;27;20229;-75
2022/05/16 10:02:24;;;;;;;8.20;3.22;;;;;31.40;96610.00;;;;8462600;27;20317;-74
2022/05/16 10:06:30;;;;;;;3.50;3.20;;;;;31.20;96608.00;;;;8453815;27;20238;-76
2022/05/16 10:10:39;;;;;;;8.48;3.40;;;;;30.50;96614.00;;;;8465447;27;20297;-73
2022/05/16 10:14:42;;;;;;;4.43;3.20;;;;;30.00;96608.00;;;;8466646;27;20658;-73
2022/05/16 10:18:49;;;;;;;12.82;3.45;;;;;29.90;96617.00;;;;8459207;27;20312;-73
2022/05/16 10:22:56;;;;;;;4.68;3.03;;;;;29.60;96626.00;;;;8464620;27;20228;-73
2022/05/16 10:27:18;;;;;;;6.68;3.40;;;;;29.20;96622.00;;;;8449009;27;20712;-74
2022/05/16 10:35:52;;;;;;;9.85;3.00;;;;;28.50;96617.00;;;;8465058;27;20217;-73
2022/05/16 10:40:06;;;;;;;4.40;2.95;;;;;28.10;96614.00;;;;8470228;27;20226;-73
2022/05/16 10:44:22;;;;;;;5.55;2.97;;;;;28.00;96611.00;;;;8472973;27;20219;-74
2022/05/16 10:48:39;;;;;;;5.90;3.40;;;;;27.80;96619.00;;;;8473278;27;20229;-74
2022/05/16 10:52:46;;;;;;;6.32;3.42;;;;;27.60;96616.00;;;;8467897;27;20222;-75
2022/05/16 10:57:15;;;;;;;6.13;3.90;;;;;27.70;96622.00;;;;8471193;27;20225;-77
2022/05/16 11:01:22;;;;;;;6.82;3.83;;;;;27.80;96619.00;;;;8456022;27;20883;-75
2022/05/16 11:05:39;;;;;;;9.27;3.88;;;;;28.30;96620.00;;;;8459980;27;20233;-76
2022/05/16 11:09:50;;;;;;;6.68;4.18;;;;;28.60;96623.00;;;;8461732;27;20230;-75
2022/05/16 11:14:04;;;;;;;6.30;4.25;;;;;28.80;96613.00;;;;8459995;27;20301;-75
2022/05/16 11:18:15;;;;;;;4.28;3.80;;;;;29.10;96626.00;;;;8462097;27;20289;-75
2022/05/16 11:22:25;;;;;;;6.93;4.22;;;;;29.30;96610.00;;;;8456977;27;20246;-74
2022/05/16 11:26:40;;;;;;;8.00;4.35;;;;;29.10;96609.00;;;;8451148;27;20825;-76
2022/05/16 11:30:48;;;;;;;7.72;4.38;;;;;28.60;96599.00;;;;8465329;27;20218;-76
2022/05/16 11:35:02;;;;;;;5.82;4.25;;;;;28.10;96612.00;;;;8459440;27;20237;-76
2022/05/16 11:39:12;;;;;;;8.52;4.32;;;;;27.90;96598.00;;;;8464194;27;20231;-76
2022/05/16 11:43:24;;;;;;;6.38;3.88;;;;;27.80;96594.00;;;;8465699;27;20840;-77
2022/05/16 11:47:34;;;;;;;8.75;4.22;;;;;27.40;96602.00;;;;8460644;27;20245;-76
2022/05/16 11:52:09;;;;;;;6.18;4.03;;;;;26.30;96596.00;;;;8459729;27;20280;-76
2022/05/16 12:00:42;;;;;;;4.43;3.88;;;;;25.70;96583.00;;;;8459000;27;20305;-76
2022/05/16 12:04:48;;;;;;;5.07;3.95;;;;;26.00;96582.00;;;;8462110;27;20230;-77
2022/05/16 12:09:15;;;;;;;9.52;5.03;;;;;26.30;96576.00;;;;8464073;27;20618;-76
2022/05/16 12:13:29;;;;;;;6.35;4.47;;;;;26.70;96571.00;;;;8471811;27;20658;-76
2022/05/16 12:17:32;;;;;;;6.30;4.63;;;;;27.00;96574.00;;;;8462712;27;20710;-76
2022/05/16 12:21:36;;;;;;;6.40;4.30;;;;;27.10;96569.00;;;;8454885;27;20324;-76
2022/05/16 12:25:42;;;;;;;5.50;4.18;;;;;26.90;96564.00;;;;8458046;27;20312;-77
2022/05/16 12:29:52;;;;;;;6.47;4.45;;;;;26.70;96558.00;;;;8459507;27;20226;-77
2022/05/16 12:33:55;;;;;;;6.25;4.28;;;;;26.50;96559.00;;;;8468327;27;20248;-77
2022/05/16 12:37:58;;;;;;;5.60;4.18;;;;;26.30;96552.00;;;;8459464;27;20235;-77
2022/05/16 12:42:20;;;;;;;9.23;4.70;;;;;26.10;96558.00;;;;8453922;27;20952;-75
2022/05/16 12:46:51;;;;;;;10.45;4.47;;;;;26.00;96548.00;;;;8470217;27;20341;-74
2022/05/16 12:51:10;;;;;;;8.25;3.70;;;;;25.90;96551.00;;;;8457706;27;20541;-76
2022/05/16 12:55:31;;;;;;;5.75;4.00;;;;;25.80;96550.00;;;;8459762;27;20314;-77
2022/05/16 12:59:52;;;;;;;6.03;3.47;;;;;25.60;96558.00;;;;8452311;27;20827;-77
2022/05/16 13:04:07;;;;;;;4.60;3.58;;;;;25.80;96551.00;;;;8461700;27;20585;-76
2022/05/16 13:08:24;;;;;;;5.55;3.42;;;;;26.10;96547.00;;;;8470161;28;20723;-76
2022/05/16 13:12:44;;;;;;;4.60;3.67;;;;;26.20;96547.00;;;;8462446;28;20259;-76
2022/05/16 13:16:54;;;;;;;7.05;3.53;;;;;26.60;96549.00;;;;8463552;28;20624;-76
2022/05/16 13:21:04;;;;;;;5.47;3.80;;;;;26.80;96548.00;;;;8462216;28;20244;-76
2022/05/16 13:25:09;;;;;;;5.68;3.35;;;;;27.40;96553.00;;;;8457129;28;20305;-75
2022/05/16 13:29:23;;;;;;;4.70;3.58;;;;;28.20;96542.00;;;;8466916;27;20306;-76
2022/05/16 13:33:32;;;;;;;4.57;3.45;;;;;28.90;96535.00;;;;8460904;27;20232;-75
2022/05/16 13:37:43;;;;;;;5.28;3.03;;;;;29.30;96541.00;;;;8469560;27;21064;-75
2022/05/16 13:41:54;;;;;;;3.08;2.78;;;;;29.90;96523.00;;;;8462598;27;20337;-75
2022/05/16 13:46:01;;;;;;;3.83;3.05;;;;;31.50;96519.00;;;;8474009;27;20236;-75
2022/05/16 13:50:07;;;;;;;3.38;2.85;;;;;32.60;96519.00;;;;8465770;27;20229;-75
2022/05/16 13:54:15;;;;;;;4.85;2.63;;;;;33.00;96516.00;;;;8474683;27;20314;-75
2022/05/16 13:58:21;;;;;;;5.20;2.70;;;;;33.50;96513.00;;;;8464415;27;20210;-75
2022/05/16 14:02:26;;;;;;;5.57;2.53;;;;;33.60;96507.00;;;;8469794;27;20857;-76
2022/05/16 14:06:37;;;;;;;5.30;2.63;;;;;33.50;96513.00;;;;8469549;27;20241;-76
2022/05/16 14:10:40;;;;;;;7.05;2.92;;;;;33.10;96505.00;;;;8457971;27;20337;-76
2022/05/16 14:14:44;;;;;;;3.40;2.70;;;;;33.00;96505.00;;;;8472943;27;20225;-76
2022/05/16 14:18:49;;;;;;;2.80;2.35;;;;;32.60;96508.00;;;;8459769;27;20815;-75
2022/05/16 14:22:59;;;;;;;6.53;2.95;;;;;31.80;96506.00;;;;8461898;27;20266;-77
2022/05/16 14:27:03;;;;;;;4.68;3.10;;;;;31.30;96509.00;;;;8456198;27;20666;-76
2022/05/16 14:31:19;;;;;;;3.75;3.00;;;;;30.90;96510.00;;;;8464373;27;20232;-76
2022/05/16 14:35:26;;;;;;;6.03;3.47;;;;;30.50;96502.00;;;;8465191;27;20248;-76
2022/05/16 14:39:32;;;;;;;5.68;3.28;;;;;30.10;96494.00;;;;8470804;27;20226;-72
2022/05/16 14:43:38;;;;;;;4.65;3.22;;;;;29.80;96495.00;;;;8471223;27;20563;-74
2022/05/16 14:47:44;;;;;;;7.32;3.47;;;;;29.60;96500.00;;;;8457340;27;20250;-73
2022/05/16 14:51:49;;;;;;;5.43;3.40;;;;;29.80;96487.00;;;;8470767;27;20222;-73
2022/05/16 14:55:55;;;;;;;5.88;3.88;;;;;30.20;96484.00;;;;8461031;27;20301;-73
2022/05/16 15:00:00;;;;;;;4.95;3.40;;;;;30.70;96477.00;;;;8468590;27;20301;-73
2022/05/16 15:04:05;;;;;;;4.57;3.17;;;;;30.10;96479.00;;;;8460328;27;20775;-75
2022/05/16 15:08:08;;;;;;;7.00;3.70;;;;;29.50;96489.00;;;;8468393;27;20214;-74
2022/05/16 15:12:13;;;;;;;8.38;3.45;;;;;29.10;96480.00;;;;8472737;27;20222;-72
2022/05/16 15:16:16;;;;;;;5.43;3.38;;;;;28.70;96475.00;;;;8480341;27;20221;-75
2022/05/16 15:20:20;;;;;;;3.75;3.15;;;;;28.20;96472.00;;;;8478863;27;20219;-74
2022/05/16 15:24:28;;;;;;;5.75;3.20;;;;;27.80;96493.00;;;;8468615;27;20218;-73
2022/05/16 15:28:50;;;;;;;33.25;6.03;;;;;26.50;96509.00;;;;8476607;27;20686;-78
2022/05/16 15:32:53;;;;;;;16.75;4.18;;;;;22.90;96519.00;;;;8459050;27;20225;-66
2022/05/16 15:36:56;;;;;;;12.38;4.07;;;;;21.10;96520.00;;;;8470694;27;20221;-67
2022/05/16 15:40:59;;;;;;;9.07;4.53;;;;;20.30;96507.00;;;;8471086;27;20270;-65
2022/05/16 15:45:04;;;;;;;10.02;3.58;;;;;19.60;96516.00;;;;8460172;27;20725;-70
2022/05/16 15:49:11;;;;;;;8.60;3.92;;;;;19.30;96515.00;;;;8461413;27;20230;-68
2022/05/16 15:53:14;;;;;;;6.43;4.00;;;;;19.00;96509.00;;;;8469418;27;20238;-71
2022/05/16 15:57:18;;;;;;;7.47;3.72;;;;;18.90;96504.00;;;;8458823;27;20253;-66
2022/05/16 16:01:22;;;;;;;8.55;3.80;;;;;18.90;96499.00;;;;8464539;27;20222;-71
2022/05/16 16:09:48;;;;;;;5.80;3.85;;;;;18.80;96498.00;;;;8463402;27;20210;-72
2022/05/16 16:13:51;;;;;;;8.10;3.70;;;;;18.80;96479.00;;;;8465088;27;20300;-69
2022/05/16 16:17:57;;;;;;;12.57;4.50;;;;;18.80;96473.00;;;;8455917;27;20214;-68
2022/05/16 16:22:00;;;;;;;9.95;4.72;;;;;18.80;96473.00;;;;8466545;27;20252;-68
2022/05/16 16:26:04;;;;;;;13.38;4.75;;;;;18.80;96460.00;;;;8463003;27;20258;-69
2022/05/16 16:30:10;;;;;;;7.68;4.22;;;;;19.00;96446.00;;;;8467585;27;20711;-74
2022/05/16 16:34:14;;;;;;;12.60;5.15;;;;;19.20;96458.00;;;;8463450;27;21040;-64
2022/05/16 16:38:22;;;;;;;11.00;4.90;;;;;19.30;96455.00;;;;8468201;27;20260;-67
2022/05/16 16:42:25;;;;;;;10.52;4.97;;;;;19.50;96451.00;;;;8460418;27;20297;-67
2022/05/16 16:46:29;;;;;;;7.85;4.57;;;;;19.90;96453.00;;;;8472144;27;20830;-69
2022/05/16 16:50:35;;;;;;;7.15;4.65;;;;;20.10;96468.00;;;;8461333;27;20255;-70
2022/05/16 16:59:04;;;;;;;5.88;4.32;;;;;20.30;96488.00;;;;8474388;27;20719;-70
2022/05/16 17:03:10;;;;;;;5.88;4.05;;;;;20.40;96488.00;;;;8462649;27;20317;-71
2022/05/16 17:07:18;;;;;;;10.63;4.00;;;;;20.30;96490.00;;;;8459576;27;20305;-72
2022/05/16 17:11:23;;;;;;;8.57;3.50;;;;;20.40;96496.00;;;;8461272;28;20313;-74
2022/05/16 17:15:27;;;;;;;7.65;3.90;;;;;20.40;96499.00;;;;8464434;28;20318;-74
2022/05/16 17:19:31;;;;;;;4.63;3.35;;;;;21.20;96507.00;;;;8458963;28;20264;-77
2022/05/16 17:23:35;;;;;;;6.03;2.88;;;;;21.50;96514.00;;;;8457058;28;20650;-74
2022/05/16 17:27:39;;;;;;;5.78;3.10;;;;;21.30;96526.00;;;;8455216;28;20221;-75
2022/05/16 17:31:44;;;;;;;6.30;3.28;;;;;21.00;96525.00;;;;8457461;28;20233;-76
2022/05/16 17:35:47;;;;;;;7.28;3.05;;;;;20.90;96526.00;;;;8461413;28;20298;-73
2022/05/16 17:39:52;;;;;;;9.18;3.53;;;;;20.80;96528.00;;;;8458502;28;20217;-71
2022/05/16 17:43:55;;;;;;;7.20;3.38;;;;;20.70;96531.00;;;;8449534;28;20594;-71
2022/05/16 17:47:58;;;;;;;8.48;3.60;;;;;20.60;96535.00;;;;8461395;28;20238;-74
2022/05/16 17:52:02;;;;;;;6.68;3.30;;;;;20.60;96536.00;;;;8451353;28;20230;-74
2022/05/16 17:56:07;;;;;;;7.60;3.30;;;;;20.50;96527.00;;;;8451958;28;20230;-73
2022/05/16 18:00:11;;;;;;;6.18;3.63;;;;;20.30;96539.00;;;;8464889;28;20253;-74
2022/05/16 18:04:17;;;;;;;6.45;3.55;;;;;20.20;96548.00;;;;8458947;27;20226;-73
2022/05/16 18:08:20;;;;;;;4.25;3.30;;;;;20.10;96544.00;;;;8454821;28;20228;-73
2022/05/16 18:12:45;;;;;;;7.75;3.47;;;;;20.00;96551.00;;;;8458458;27;20853;-74
2022/05/16 18:16:49;;;;;;;8.40;3.88;;;;;19.90;96552.00;;;;8462340;27;20256;-74
2022/05/16 18:20:52;;;;;;;6.13;3.78;;;;;19.80;96558.00;;;;8466843;27;20229;-74
2022/05/16 18:25:00;;;;;;;6.63;3.63;;;;;19.60;96557.00;;;;8459028;27;20641;-75
2022/05/16 18:29:07;;;;;;;9.90;3.88;;;;;19.60;96560.00;;;;8464436;27;20223;-74
2022/05/16 18:33:12;;;;;;;6.25;4.70;;;;;19.50;96562.00;;;;8464759;27;20222;-72
2022/05/16 18:37:15;;;;;;;14.75;4.53;;;;;19.40;96572.00;;;;8461422;27;20226;-72
2022/05/16 18:41:26;;;;;;;10.02;4.30;;;;;19.40;96567.00;;;;8468005;27;20302;-73
2022/05/16 18:54:12;;;;;;;8.73;4.55;;;;;18.90;96570.00;;;;8425424;27;20729;-74
2022/05/16 18:58:15;;;;;;;10.60;4.60;;;;;18.90;96575.00;;;;8453356;27;20218;-73
2022/05/16 19:02:20;;;;;;;10.27;4.22;;;;;18.80;96583.00;;;;8465743;27;20244;-75
2022/05/16 19:06:24;;;;;;;6.72;4.30;;;;;18.80;96594.00;;;;8460332;27;20691;-73
2022/05/16 19:10:28;;;;;;;8.32;4.05;;;;;18.80;96597.00;;;;8462099;27;20240;-74
2022/05/16 19:14:31;;;;;;;8.05;4.18;;;;;18.80;96599.00;;;;8459234;27;20597;-74
2022/05/16 19:18:35;;;;;;;17.02;4.35;;;;;18.80;96610.00;;;;8465370;27;20310;-73
2022/05/16 19:22:39;;;;;;;8.80;4.45;;;;;18.80;96626.00;;;;8458883;27;20226;-74
2022/05/16 19:26:42;;;;;;;8.00;4.40;;;;;18.80;96620.00;;;;8463047;27;20232;-72
2022/05/16 19:35:09;;;;;;;5.80;3.92;;;;;18.80;96635.00;;;;8460763;27;20224;-70
2022/05/16 19:39:13;;;;;;;7.07;3.83;;;;;18.80;96640.00;;;;8459278;27;20974;-72
2022/05/16 19:43:16;;;;;;;8.48;4.63;;;;;18.80;96641.00;;;;8464142;27;20228;-70
2022/05/16 19:47:20;;;;;;;9.35;4.20;;;;;18.80;96641.00;;;;8461446;27;20584;-73
2022/05/16 19:51:26;;;;;;;7.35;4.10;;;;;18.80;96641.00;;;;8467858;27;20232;-71
2022/05/16 19:55:29;;;;;;;6.13;4.38;;;;;18.70;96645.00;;;;8470772;27;20222;-71
2022/05/16 19:59:32;;;;;;;6.65;3.33;;;;;18.60;96645.00;;;;8468389;27;20305;-72
2022/05/16 20:03:37;;;;;;;6.30;4.07;;;;;18.60;96637.00;;;;8463192;27;20232;-72
2022/05/16 20:07:41;;;;;;;6.03;3.78;;;;;18.50;96626.00;;;;8459773;27;20271;-73
2022/05/16 20:11:47;;;;;;;8.30;3.75;;;;;18.40;96640.00;;;;8460440;27;20241;-72
2022/05/16 20:15:51;;;;;;;5.82;3.55;;;;;18.30;96638.00;;;;8470846;27;20228;-69
2022/05/16 20:19:54;;;;;;;5.97;3.95;;;;;18.20;96633.00;;;;8469738;27;20324;-71
2022/05/16 20:28:28;;;;;;;8.85;3.92;;;;;18.00;96635.00;;;;8462333;27;20222;-69
2022/05/16 20:32:32;;;;;;;8.18;3.80;;;;;17.90;96637.00;;;;8462097;27;20224;-71
2022/05/16 20:36:35;;;;;;;7.05;3.78;;;;;17.90;96639.00;;;;8464922;27;20236;-71
2022/05/16 20:40:42;;;;;;;5.65;3.95;;;;;17.80;96638.00;;;;8471267;27;20609;-71
2022/05/16 20:44:46;;;;;;;11.55;4.28;;;;;17.70;96647.00;;;;8474130;27;20609;-70
2022/05/16 20:48:49;;;;;;;8.32;4.40;;;;;17.60;96649.00;;;;8479942;27;20672;-71
2022/05/16 20:52:54;;;;;;;7.80;4.10;;;;;17.60;96643.00;;;;8465577;27;20233;-70
2022/05/16 20:56:59;;;;;;;8.77;4.55;;;;;17.50;96643.00;;;;8479268;27;20749;-70
2022/05/16 21:01:04;;;;;;;8.70;4.10;;;;;17.50;96640.00;;;;8462301;27;20803;-71
2022/05/16 21:05:09;;;;;;;7.45;4.68;;;;;17.40;96631.00;;;;8459481;27;20624;-71
2022/05/16 21:09:12;;;;;;;17.23;4.93;;;;;17.30;96641.00;;;;8467970;27;20317;-71
2022/05/16 21:13:17;;;;;;;6.25;4.63;;;;;17.20;96639.00;;;;8456987;27;20218;-71
2022/05/16 21:17:20;;;;;;;13.90;5.43;;;;;17.10;96634.00;;;;8465645;27;20224;-71
2022/05/16 21:21:27;;;;;;;9.13;4.40;;;;;17.10;96629.00;;;;8456918;28;20787;-71
2022/05/16 21:25:30;;;;;;;8.27;4.70;;;;;16.90;96616.00;;;;8468337;27;20230;-71
2022/05/16 21:29:38;;;;;;;9.60;5.18;;;;;16.80;96621.00;;;;8461019;28;20240;-70
2022/05/16 21:33:41;;;;;;;10.88;4.90;;;;;16.60;96620.00;;;;8457918;28;20220;-71
2022/05/16 21:37:44;;;;;;;7.93;4.82;;;;;16.50;96619.00;;;;8458703;28;20226;-71